This is the latest recevied weather packets stored in our database for station/object K4BHH. If no packets are shown the sender has not sent any weather packets the latest 10 day(s).
| Time | Temp. | Humidity | Pressure | Rain* | Wind** | Luminosity | Snow |
|---|---|---|---|---|---|---|---|
| 1777944060 | 20.56° C | 50% | 1012.5 hPa | 0 mm | - | - | - |
| 1777942226 | 21.67° C | 47% | 1012.2 hPa | 0 mm | - | - | - |
| 1777936031 | 25° C | 37% | 1012.2 hPa | 0 mm | - | - | - |
| 1777934196 | 25° C | 37% | 1012.2 hPa | 0 mm | - | - | - |
| 1777932994 | 25.56° C | 38% | 1012.5 hPa | 0 mm | - | - | - |
| 1777928187 | 25° C | 40% | 1012.5 hPa | 0 mm | - | - | - |
| 1777922778 | 25° C | 43% | 1013.9 hPa | 0 mm | - | - | - |
| 1777919775 | 25.56° C | 46% | 1014.2 hPa | 0 mm | - | - | - |
| 1777917339 | 24.44° C | 47% | 1014.9 hPa | 0 mm | - | - | - |
| 1777914874 | 23.89° C | 49% | 1015.6 hPa | 0 mm | - | - | - |
| 1777914273 | 23.89° C | 50% | 1015.6 hPa | 0 mm | - | - | - |
| 1777912469 | 22.78° C | 49% | 1015.9 hPa | 0 mm | - | - | - |
| 1777908677 | 21.67° C | 52% | 1016.9 hPa | 0 mm | - | - | - |
| 1777906874 | 20.56° C | 51% | 1016.9 hPa | 0 mm | - | - | - |
| 1777906273 | 20° C | 52% | 1016.9 hPa | 0 mm | - | - | - |
| 1777905673 | 19.44° C | 53% | 1016.9 hPa | 0 mm | - | - | - |
| 1777903237 | 17.78° C | 57% | 1017.6 hPa | 0 mm | - | - | - |
| 1777896533 | 12.78° C | 72% | 1017.3 hPa | 0 mm | - | - | - |
| 1777894099 | 10° C | 80% | 1016.9 hPa | 0 mm | - | - | - |
| 1777892295 | 8.33° C | 84% | 1016.6 hPa | 0 mm | - | - | - |
| 1777888689 | 8.33° C | 83% | 1016.6 hPa | 0 mm | - | - | - |
| 1777885022 | 7.22° C | 88% | 1016.6 hPa | 0 mm | - | - | - |
| 1777881923 | 7.22° C | 87% | 1016.6 hPa | 0 mm | - | - | - |
| 1777875249 | 9.44° C | 77% | 1017.3 hPa | 0 mm | - | - | - |
| 1777874048 | 8.89° C | 79% | 1017.6 hPa | 0 mm | - | - | - |
* Rain latest hour (hover to see other rain measurements)
** Current wind speed in m/s (hover to see current wind gust speed)